Time;durP1;ratioP1;P1;durP2;ratioP2;P2;SDS_P1;SDS_P2;PMS_P1;PMS_P2;Temp;Humidity;BMP_temperature;BMP_pressure;BME280_temperature;BME280_humidity;BME280_pressure;Samples;Min_cycle;Max_cycle;Signal;HPM_P1;HPM_P2
2022/01/24 00:00:05;;;;;;;;;;;;;;;-15.13;49.93;98631.81;6261737;28;19932;-63
2022/01/24 00:03:08;;;;;;;;;;;;;;;-15.06;50.15;98636.44;6259949;28;19920;-63
2022/01/24 00:06:14;;;;;;;;;;;;;;;-14.99;50.19;98630.16;6248527;28;19925;-63
2022/01/24 00:09:15;;;;;;;;;;;;;;;-14.90;49.97;98637.44;6265177;28;19927;-63
2022/01/24 00:12:26;;;;;;;;;;;;;;;-14.83;50.57;98639.53;6265158;28;20290;-62
2022/01/24 00:15:55;;;;;;;;;;;;;;;-14.72;50.22;98641.06;6261746;28;20379;-63
2022/01/24 00:28:36;;;;;;;;;;;;;;;-14.55;50.98;98637.97;6260440;28;20429;-63
2022/01/24 00:31:39;;;;;;;;;;;;;;;-14.51;52.92;98638.97;6258806;28;19928;-63
2022/01/24 00:34:40;;;;;;;;;;;;;;;-14.50;53.75;98646.63;6262479;28;19932;-62
2022/01/24 00:37:41;;;;;;;;;;;;;;;-14.49;54.13;98643.34;6259935;28;19925;-61
2022/01/24 00:40:46;;;;;;;;;;;;;;;-14.42;53.70;98648.78;6256817;28;19925;-64
2022/01/24 00:46:58;;;;;;;;;;;;;;;-14.35;53.78;98646.72;6261528;28;19924;-63
2022/01/24 00:53:18;;;;;;;;;;;;;;;-14.27;52.15;98649.69;6263147;28;20020;-63
2022/01/24 00:56:19;;;;;;;;;;;;;;;-14.28;53.10;98650.47;6262217;28;20406;-63
2022/01/24 00:59:20;;;;;;;;;;;;;;;-14.31;53.54;98645.25;6260253;28;19925;-63
2022/01/24 01:02:21;;;;;;;;;;;;;;;-14.37;53.21;98640.69;6265868;28;19932;-63
2022/01/24 01:05:39;;;;;;;;;;;;;;;-14.45;54.64;98644.41;6261621;28;19924;-63
2022/01/24 01:18:43;;;;;;;;;;;;;;;-14.98;57.54;98640.31;6246585;28;19935;-63
2022/01/24 01:21:44;;;;;;;;;;;;;;;-15.07;58.51;98638.88;6255957;28;20019;-63
2022/01/24 01:24:50;;;;;;;;;;;;;;;-15.12;58.89;98630.16;6263098;28;20002;-63
2022/01/24 01:27:56;;;;;;;;;;;;;;;-15.05;58.14;98622.19;6254328;28;20460;-63
2022/01/24 01:31:02;;;;;;;;;;;;;;;-14.98;57.37;98619.25;6253091;28;19925;-62
2022/01/24 01:54:16;;;;;;;;;;;;;;;-15.49;57.62;98638.75;6266180;28;20294;-62
2022/01/24 01:57:19;;;;;;;;;;;;;;;-15.56;58.91;98651.78;6250503;28;19925;-63
2022/01/24 02:00:20;;;;;;;;;;;;;;;-15.62;59.07;98646.34;6256744;28;20396;-62
2022/01/24 02:03:22;;;;;;;;;;;;;;;-15.70;59.38;98657.59;6259555;28;20038;-63
2022/01/24 02:06:26;;;;;;;;;;;;;;;-15.80;58.46;98656.09;6258447;28;20386;-62
2022/01/24 02:09:31;;;;;;;;;;;;;;;-15.92;57.70;98646.09;6263692;28;20054;-62
2022/01/24 02:12:32;;;;;;;;;;;;;;;-16.00;58.74;98647.22;6261366;28;19935;-62
2022/01/24 02:15:48;;;;;;;;;;;;;;;-16.05;59.08;98638.47;6257819;28;20031;-63
2022/01/24 02:19:06;;;;;;;;;;;;;;;-16.13;58.93;98643.03;6261229;28;19924;-63
2022/01/24 02:22:39;;;;;;;;;;;;;;;-16.23;56.88;98648.19;6262576;28;20023;-63
2022/01/24 02:25:32;;;;;;;;;;;;;;;-16.43;56.16;98639.28;6257929;28;19931;-62
2022/01/24 02:28:59;;;;;;;;;;;;;;;-16.59;55.94;98646.56;6261700;28;19925;-63
2022/01/24 02:32:03;;;;;;;;;;;;;;;-16.77;55.75;98639.53;6265789;28;19925;-63
2022/01/24 02:35:05;;;;;;;;;;;;;;;-16.89;55.73;98628.59;6265318;28;19925;-64
2022/01/24 02:38:19;;;;;;;;;;;;;;;-17.01;55.83;98636.19;6263472;28;19936;-63
2022/01/24 02:48:28;;;;;;;;;;;;;;;-17.11;57.10;98622.84;6223830;28;19925;-63
2022/01/24 02:54:42;;;;;;;;;;;;;;;-16.84;58.32;98634.84;6258069;28;20475;-63
2022/01/24 02:57:43;;;;;;;;;;;;;;;-16.70;58.24;98638.25;6261621;28;19928;-63
2022/01/24 03:00:46;;;;;;;;;;;;;;;-16.56;57.21;98641.72;6264182;28;19925;-63
2022/01/24 03:03:49;;;;;;;;;;;;;;;-16.51;56.08;98640.41;6263655;28;20310;-64
2022/01/24 03:06:50;;;;;;;;;;;;;;;-16.55;56.09;98653.59;6259571;28;19924;-63
2022/01/24 03:09:54;;;;;;;;;;;;;;;-16.56;55.20;98654.31;6262208;28;19925;-63
2022/01/24 03:16:34;;;;;;;;;;;;;;;-16.78;56.02;98675.56;6190456;28;19926;-63
2022/01/24 03:19:38;;;;;;;;;;;;;;;-16.76;56.53;98684.03;6264167;28;19929;-62
2022/01/24 03:22:39;;;;;;;;;;;;;;;-16.72;55.40;98687.66;6265570;28;19931;-62
2022/01/24 03:25:43;;;;;;;;;;;;;;;-16.72;55.55;98674.22;6262159;28;19920;-64
2022/01/24 03:28:46;;;;;;;;;;;;;;;-16.69;54.90;98674.41;6263432;28;19979;-63
2022/01/24 03:31:47;;;;;;;;;;;;;;;-16.64;54.66;98678.09;6264845;28;19932;-63
2022/01/24 03:34:48;;;;;;;;;;;;;;;-16.67;54.58;98668.72;6224932;28;20365;-63
2022/01/24 03:37:49;;;;;;;;;;;;;;;-16.75;54.79;98674.88;6258418;28;19962;-65
2022/01/24 03:40:51;;;;;;;;;;;;;;;-16.81;54.63;98677.88;6247424;28;20638;-63
2022/01/24 03:43:52;;;;;;;;;;;;;;;-16.89;54.68;98675.56;6261703;28;19924;-63
2022/01/24 03:50:02;;;;;;;;;;;;;;;-17.14;55.47;98685.53;6267280;28;19929;-63
2022/01/24 03:53:04;;;;;;;;;;;;;;;-17.17;55.06;98683.69;6262354;28;19924;-63
2022/01/24 03:56:08;;;;;;;;;;;;;;;-17.24;55.13;98687.38;6268196;28;19986;-63
2022/01/24 03:59:09;;;;;;;;;;;;;;;-17.29;55.00;98686.19;6266937;28;19932;-63
2022/01/24 04:02:13;;;;;;;;;;;;;;;-17.35;55.12;98688.28;6261117;28;19925;-63
2022/01/24 04:05:17;;;;;;;;;;;;;;;-17.38;55.14;98688.03;6263525;28;19921;-63
2022/01/24 04:08:18;;;;;;;;;;;;;;;-17.42;55.13;98691.09;6269069;28;19947;-63
2022/01/24 04:11:21;;;;;;;;;;;;;;;-17.43;55.03;98681.81;6268848;28;19929;-62
2022/01/24 04:17:43;;;;;;;;;;;;;;;-17.44;55.02;98678.41;6254182;28;20307;-63
2022/01/24 04:24:09;;;;;;;;;;;;;;;-17.24;55.00;98684.88;6258022;28;19925;-63
2022/01/24 04:27:10;;;;;;;;;;;;;;;-17.11;54.47;98679.09;6262345;28;20400;-63
2022/01/24 04:30:14;;;;;;;;;;;;;;;-16.97;54.60;98677.53;6266631;28;20382;-64
2022/01/24 04:33:18;;;;;;;;;;;;;;;-16.78;54.38;98677.22;6266880;28;19925;-63
2022/01/24 04:36:21;;;;;;;;;;;;;;;-16.57;53.87;98672.75;6261610;28;19986;-64
2022/01/24 04:39:23;;;;;;;;;;;;;;;-16.41;53.68;98673.03;6250451;28;19932;-63
2022/01/24 04:42:38;;;;;;;;;;;;;;;-16.20;53.27;98672.75;6261951;28;19929;-61
2022/01/24 04:55:23;;;;;;;;;;;;;;;-15.63;52.70;98690.84;6258270;28;20432;-68
2022/01/24 04:58:24;;;;;;;;;;;;;;;-15.56;52.34;98689.63;6262342;28;19932;-67
2022/01/24 05:01:25;;;;;;;;;;;;;;;-15.49;52.53;98689.22;6254907;28;19932;-66
2022/01/24 05:04:26;;;;;;;;;;;;;;;-15.41;52.18;98693.13;6259059;28;19933;-65
2022/01/24 05:07:27;;;;;;;;;;;;;;;-15.30;51.86;98681.22;6258543;28;19929;-67
2022/01/24 05:10:36;;;;;;;;;;;;;;;-15.25;51.66;98684.91;6259936;28;20365;-62
2022/01/24 05:23:43;;;;;;;;;;;;;;;-14.75;51.70;98688.91;6254293;28;19925;-62
2022/01/24 05:26:44;;;;;;;;;;;;;;;-14.55;51.02;98678.41;6250563;28;19921;-62
2022/01/24 05:29:45;;;;;;;;;;;;;;;-14.39;51.00;98686.88;6250648;28;20379;-62
2022/01/24 05:32:49;;;;;;;;;;;;;;;-14.28;50.63;98678.28;6260177;28;19933;-62
2022/01/24 05:35:50;;;;;;;;;;;;;;;-14.11;50.82;98675.13;6250055;28;19921;-62
2022/01/24 05:38:53;;;;;;;;;;;;;;;-13.86;50.29;98674.94;6253033;28;19925;-63
2022/01/24 05:41:54;;;;;;;;;;;;;;;-13.60;50.24;98678.97;6260144;28;19931;-63
2022/01/24 05:44:55;;;;;;;;;;;;;;;-13.40;49.76;98676.72;6252659;28;19929;-63
2022/01/24 05:47:56;;;;;;;;;;;;;;;-13.17;49.57;98675.47;6249019;28;19929;-62
2022/01/24 05:50:57;;;;;;;;;;;;;;;-12.86;49.16;98673.00;6254943;28;19932;-62
2022/01/24 05:53:58;;;;;;;;;;;;;;;-12.49;48.56;98664.84;6262307;28;20393;-63
2022/01/24 05:56:59;;;;;;;;;;;;;;;-12.17;48.25;98663.16;6252266;28;19925;-63
2022/01/24 06:00:05;;;;;;;;;;;;;;;-11.94;47.83;98655.09;6258601;28;19924;-64
2022/01/24 06:03:06;;;;;;;;;;;;;;;-11.65;47.45;98645.50;6258528;28;19925;-62
2022/01/24 06:06:08;;;;;;;;;;;;;;;-11.39;47.33;98652.75;6266180;28;19924;-63
2022/01/24 06:09:09;;;;;;;;;;;;;;;-11.15;46.78;98649.66;6265850;28;19931;-61
2022/01/24 06:12:11;;;;;;;;;;;;;;;-10.90;46.60;98647.53;6257286;28;19929;-64
2022/01/24 06:15:14;;;;;;;;;;;;;;;-10.57;46.41;98642.25;6251643;28;19925;-64
2022/01/24 06:18:20;;;;;;;;;;;;;;;-10.26;45.83;98648.72;6266719;28;19931;-65
2022/01/24 06:21:23;;;;;;;;;;;;;;;-10.01;45.54;98648.16;6263764;28;20314;-66
2022/01/24 06:24:24;;;;;;;;;;;;;;;-9.75;45.43;98641.63;6257093;28;19925;-65
2022/01/24 06:27:25;;;;;;;;;;;;;;;-9.48;45.16;98654.69;6267973;28;19996;-65
2022/01/24 06:30:26;;;;;;;;;;;;;;;-9.24;45.11;98647.19;6267545;28;20023;-65
2022/01/24 06:33:30;;;;;;;;;;;;;;;-8.92;44.97;98642.50;6250368;28;20074;-64
2022/01/24 06:36:31;;;;;;;;;;;;;;;-8.51;44.49;98638.19;6272718;28;20389;-65
2022/01/24 06:39:34;;;;;;;;;;;;;;;-7.97;44.09;98635.91;6271653;28;19929;-64
2022/01/24 06:42:41;;;;;;;;;;;;;;;-7.45;43.01;98637.72;6270487;28;19928;-62
2022/01/24 06:45:42;;;;;;;;;;;;;;;-7.03;41.80;98629.75;6269936;28;19976;-63
2022/01/24 06:48:46;;;;;;;;;;;;;;;-6.61;40.35;98621.69;6261841;28;19936;-62
2022/01/24 06:51:49;;;;;;;;;;;;;;;-6.22;40.21;98631.41;6266959;28;19925;-63
2022/01/24 06:54:52;;;;;;;;;;;;;;;-5.69;38.54;98630.34;6266282;28;19932;-63
2022/01/24 06:57:56;;;;;;;;;;;;;;;-4.37;39.22;98627.59;6260502;28;20386;-64
2022/01/24 07:00:57;;;;;;;;;;;;;;;-1.82;34.69;98633.75;6267047;28;19940;-61
2022/01/24 07:03:59;;;;;;;;;;;;;;;0.87;33.43;98621.00;6265031;28;19947;-61
2022/01/24 07:07:04;;;;;;;;;;;;;;;2.98;25.83;98626.59;6243893;28;20350;-62
2022/01/24 07:10:05;;;;;;;;;;;;;;;4.44;28.49;98639.09;6267565;28;19925;-61
2022/01/24 07:13:08;;;;;;;;;;;;;;;5.79;23.63;98626.69;6256918;28;19925;-62
2022/01/24 07:16:12;;;;;;;;;;;;;;;6.55;22.18;98628.75;6257109;28;19925;-61
2022/01/24 07:19:17;;;;;;;;;;;;;;;6.00;22.12;98630.69;6267171;28;19924;-61
2022/01/24 07:22:18;;;;;;;;;;;;;;;4.82;25.40;98614.28;6265229;28;19932;-60
2022/01/24 07:25:22;;;;;;;;;;;;;;;3.74;25.16;98624.25;6261726;28;20492;-61
2022/01/24 07:28:23;;;;;;;;;;;;;;;3.30;29.05;98617.69;6258523;28;19931;-61
2022/01/24 07:31:24;;;;;;;;;;;;;;;3.17;28.87;98621.25;6257805;28;19929;-61
2022/01/24 07:34:25;;;;;;;;;;;;;;;3.63;28.13;98611.34;6265701;28;19932;-61
2022/01/24 07:37:26;;;;;;;;;;;;;;;4.53;30.66;98616.41;6268260;28;20023;-62
2022/01/24 07:40:29;;;;;;;;;;;;;;;5.00;26.76;98614.91;6265618;28;19925;-62
2022/01/24 07:43:32;;;;;;;;;;;;;;;4.89;25.24;98610.69;6261670;28;19925;-62
2022/01/24 07:46:38;;;;;;;;;;;;;;;4.54;26.45;98605.13;6259867;28;19925;-62
2022/01/24 07:49:42;;;;;;;;;;;;;;;3.98;26.20;98618.78;6266787;28;20357;-61
2022/01/24 07:52:43;;;;;;;;;;;;;;;3.55;28.20;98619.22;6266158;28;19939;-63
2022/01/24 07:55:45;;;;;;;;;;;;;;;2.91;32.02;98619.69;6263830;28;19955;-63
2022/01/24 07:58:46;;;;;;;;;;;;;;;2.28;34.31;98621.75;6267570;28;19931;-62
2022/01/24 08:01:50;;;;;;;;;;;;;;;2.01;33.42;98626.19;6246759;28;20318;-63
2022/01/24 08:04:54;;;;;;;;;;;;;;;2.10;34.10;98620.09;6265919;28;20011;-62
2022/01/24 08:07:57;;;;;;;;;;;;;;;2.37;34.01;98619.09;6259377;28;19931;-62
2022/01/24 08:10:58;;;;;;;;;;;;;;;3.04;32.70;98618.75;6263430;28;19921;-64
2022/01/24 08:14:02;;;;;;;;;;;;;;;3.94;31.30;98622.31;6262963;28;20426;-63
2022/01/24 08:17:05;;;;;;;;;;;;;;;4.95;30.04;98630.63;6256822;28;19968;-62
2022/01/24 08:20:06;;;;;;;;;;;;;;;6.00;28.92;98624.59;6246244;28;19994;-63
2022/01/24 08:23:16;;;;;;;;;;;;;;;7.04;28.07;98611.13;6258323;28;19928;-62
2022/01/24 08:26:20;;;;;;;;;;;;;;;7.62;27.70;98621.06;6252190;28;19925;-63
2022/01/24 08:29:23;;;;;;;;;;;;;;;7.75;27.44;98616.38;6269056;28;19931;-62
2022/01/24 08:32:24;;;;;;;;;;;;;;;7.91;27.10;98606.34;6269350;28;20023;-62
2022/01/24 08:35:28;;;;;;;;;;;;;;;8.63;26.96;98611.38;6263329;28;19932;-68
2022/01/24 08:38:34;;;;;;;;;;;;;;;10.17;25.33;98608.16;6267886;28;19925;-75
2022/01/24 08:48:06;;;;;;;;;;;;;;;13.54;21.20;98586.94;6256778;28;20062;-68
2022/01/24 08:51:10;;;;;;;;;;;;;;;14.45;20.45;98591.09;6264300;28;19947;-68
2022/01/24 08:54:14;;;;;;;;;;;;;;;15.24;17.97;98584.09;6261364;28;19974;-66
2022/01/24 08:57:21;;;;;;;;;;;;;;;16.20;16.35;98570.63;6268625;28;19936;-68
2022/01/24 09:00:27;;;;;;;;;;;;;;;16.95;17.95;98564.13;6269009;28;19963;-67
2022/01/24 09:03:32;;;;;;;;;;;;;;;17.33;18.82;98560.81;6269081;28;19925;-68
2022/01/24 09:06:36;;;;;;;;;;;;;;;17.72;19.04;98553.81;6268295;28;20379;-68
2022/01/24 09:09:41;;;;;;;;;;;;;;;18.11;18.38;98549.41;6268706;28;19925;-69
2022/01/24 09:12:45;;;;;;;;;;;;;;;18.47;15.37;98550.50;6269283;28;19924;-69
2022/01/24 09:15:48;;;;;;;;;;;;;;;18.36;19.40;98549.41;6264403;28;20406;-69
2022/01/24 09:18:50;;;;;;;;;;;;;;;18.58;17.90;98547.91;6267648;28;20417;-68
2022/01/24 09:21:51;;;;;;;;;;;;;;;18.83;18.13;98534.56;6269117;28;19932;-68
2022/01/24 09:24:55;;;;;;;;;;;;;;;19.23;18.86;98537.00;6266686;28;19924;-68
2022/01/24 09:28:00;;;;;;;;;;;;;;;18.78;19.35;98518.03;6267047;28;19925;-67
2022/01/24 09:31:03;;;;;;;;;;;;;;;17.82;18.82;98522.97;6256484;28;19929;-69
2022/01/24 09:34:09;;;;;;;;;;;;;;;16.93;19.87;98518.22;6260318;28;19924;-69
2022/01/24 09:37:10;;;;;;;;;;;;;;;16.04;19.55;98507.78;6262470;28;19925;-68
2022/01/24 09:40:16;;;;;;;;;;;;;;;14.89;19.18;98508.34;6267386;28;19929;-68
2022/01/24 09:43:17;;;;;;;;;;;;;;;14.01;19.56;98507.81;6273831;28;20119;-69
2022/01/24 09:46:21;;;;;;;;;;;;;;;13.36;19.44;98502.31;6263145;28;19925;-68
2022/01/24 09:49:22;;;;;;;;;;;;;;;13.58;20.25;98503.84;6267605;28;19932;-68
2022/01/24 09:52:23;;;;;;;;;;;;;;;13.76;19.62;98500.28;6267105;28;19924;-68
2022/01/24 09:55:29;;;;;;;;;;;;;;;14.25;20.18;98505.63;6268376;28;20013;-68
2022/01/24 09:58:33;;;;;;;;;;;;;;;14.70;15.99;98496.13;6265916;28;19925;-69
2022/01/24 10:01:37;;;;;;;;;;;;;;;14.94;16.52;98493.03;6268453;28;20345;-68
2022/01/24 10:04:38;;;;;;;;;;;;;;;15.09;14.84;98492.19;6257925;28;20310;-69
2022/01/24 10:07:54;;;;;;;;;;;;;;;15.23;16.64;98500.19;6262869;28;19924;-68
2022/01/24 10:11:03;;;;;;;;;;;;;;;15.64;16.41;98504.84;6262199;28;19936;-69
2022/01/24 10:17:28;;;;;;;;;;;;;;;15.49;16.14;98511.94;6256022;28;19924;-69
2022/01/24 10:20:33;;;;;;;;;;;;;;;15.05;18.56;98501.25;6270579;28;19924;-68
2022/01/24 10:23:43;;;;;;;;;;;;;;;14.97;15.22;98492.88;6268012;28;20397;-68
2022/01/24 10:26:46;;;;;;;;;;;;;;;14.98;16.34;98495.44;6270400;28;19925;-69
2022/01/24 10:29:52;;;;;;;;;;;;;;;14.81;18.55;98496.41;6267932;28;19924;-69
2022/01/24 10:33:00;;;;;;;;;;;;;;;14.63;17.71;98484.16;6275405;28;19924;-68
2022/01/24 10:36:03;;;;;;;;;;;;;;;14.56;17.30;98493.41;6286913;28;19924;-69
2022/01/24 10:39:09;;;;;;;;;;;;;;;14.34;16.32;98491.03;6284025;28;19966;-68
2022/01/24 10:45:27;;;;;;;;;;;;;;;13.56;16.51;98496.03;6279569;28;20306;-68
2022/01/24 10:48:30;;;;;;;;;;;;;;;11.29;19.03;98498.53;6271995;28;20394;-68
2022/01/24 10:51:37;;;;;;;;;;;;;;;8.39;20.62;98482.66;6265707;28;19928;-68
2022/01/24 10:54:43;;;;;;;;;;;;;;;5.67;24.55;98490.25;6273912;28;20236;-69
2022/01/24 10:57:49;;;;;;;;;;;;;;;3.45;28.62;98482.22;6271101;28;19925;-69
2022/01/24 11:00:53;;;;;;;;;;;;;;;1.68;30.51;98480.03;6267071;28;20386;-68
2022/01/24 11:03:58;;;;;;;;;;;;;;;0.46;31.57;98483.66;6279722;28;20058;-63
2022/01/24 11:07:05;;;;;;;;;;;;;;;-0.28;32.15;98485.19;6260032;28;19924;-64
2022/01/24 11:10:06;;;;;;;;;;;;;;;-0.84;32.55;98488.34;6269945;28;19960;-64
2022/01/24 11:13:11;;;;;;;;;;;;;;;-1.34;32.37;98481.94;6276642;28;20027;-64
2022/01/24 11:16:12;;;;;;;;;;;;;;;-1.76;33.38;98495.34;6267149;28;19932;-65
2022/01/24 11:19:23;;;;;;;;;;;;;;;-2.13;33.04;98492.34;6263872;28;19925;-66
2022/01/24 11:22:29;;;;;;;;;;;;;;;-2.55;33.15;98488.41;6262761;28;19929;-71
2022/01/24 11:25:36;;;;;;;;;;;;;;;-3.00;33.35;98485.22;6252228;28;19925;-71
2022/01/24 11:28:43;;;;;;;;;;;;;;;-3.46;33.71;98486.22;6271298;28;19924;-70
2022/01/24 11:31:50;;;;;;;;;;;;;;;-4.02;34.27;98486.94;6271948;28;19925;-70
2022/01/24 11:34:55;;;;;;;;;;;;;;;-4.59;35.61;98480.69;6270372;28;19924;-72
2022/01/24 11:38:00;;;;;;;;;;;;;;;-5.15;36.32;98480.34;6270533;28;20378;-71
2022/01/24 11:41:04;;;;;;;;;;;;;;;-5.53;36.33;98493.09;6271057;28;19925;-70
2022/01/24 11:44:19;;;;;;;;;;;;;;;-5.85;36.57;98494.00;6270994;28;19925;-70
2022/01/24 11:47:23;;;;;;;;;;;;;;;-6.02;36.80;98497.03;6270088;28;20341;-70
2022/01/24 11:50:31;;;;;;;;;;;;;;;-6.21;36.81;98495.66;6270274;28;19924;-70
2022/01/24 11:53:37;;;;;;;;;;;;;;;-6.41;36.88;98497.66;6269024;28;19989;-70
2022/01/24 11:56:41;;;;;;;;;;;;;;;-6.64;37.77;98493.59;6270589;28;19970;-69
2022/01/24 11:59:45;;;;;;;;;;;;;;;-6.89;38.94;98500.53;6268022;28;20074;-69
2022/01/24 12:02:54;;;;;;;;;;;;;;;-7.03;37.91;98501.81;6268119;28;19963;-69
2022/01/24 12:05:57;;;;;;;;;;;;;;;-7.20;37.58;98505.56;6269816;28;19932;-70
2022/01/24 12:09:00;;;;;;;;;;;;;;;-7.40;37.56;98503.22;6269193;28;19925;-69
2022/01/24 12:12:34;;;;;;;;;;;;;;;-7.61;37.96;98492.31;6260197;28;19925;-68
2022/01/24 12:15:38;;;;;;;;;;;;;;;-7.85;38.70;98498.34;6247662;28;19925;-63
2022/01/24 12:18:39;;;;;;;;;;;;;;;-8.02;38.51;98500.34;6259629;28;19976;-63
2022/01/24 12:21:46;;;;;;;;;;;;;;;-8.24;41.05;98498.72;6308384;27;2219630;-62
2022/01/24 12:24:48;;;;;;;;;;;;;;;-8.38;41.95;98505.03;6379790;27;20025;-62
2022/01/24 12:28:08;;;;;;;;;;;;;;;-8.49;39.89;98496.16;6385940;27;19927;-63
2022/01/24 12:31:12;;;;;;;;;;;;;;;-8.66;39.45;98500.63;6377487;27;20011;-63
2022/01/24 12:34:18;;;;;;;;;;;;;;;-8.83;41.25;98505.13;6385790;27;19923;-62
2022/01/24 12:37:24;;;;;;;;;;;;;;;-8.95;41.08;98500.44;6385395;27;20300;-62
2022/01/24 12:40:28;;;;;;;;;;;;;;;-9.09;40.59;98497.34;6380947;27;19971;-62
2022/01/24 12:43:50;;;;;;;;;;;;;;;-9.15;40.11;98488.59;6383859;27;20064;-62
2022/01/24 12:46:51;;;;;;;;;;;;;;;-9.25;39.59;98495.03;6373810;27;19923;-63
2022/01/24 12:49:55;;;;;;;;;;;;;;;-9.40;39.75;98499.53;6352507;27;19931;-64
2022/01/24 12:53:02;;;;;;;;;;;;;;;-9.63;39.79;98493.50;6379390;27;19923;-63
2022/01/24 12:56:04;;;;;;;;;;;;;;;-9.91;40.32;98491.53;6374215;27;19930;-64
2022/01/24 12:59:08;;;;;;;;;;;;;;;-10.19;40.64;98498.91;6376459;27;19929;-63
2022/01/24 13:02:11;;;;;;;;;;;;;;;-10.38;42.14;98508.25;6375171;27;20367;-63
2022/01/24 13:05:14;;;;;;;;;;;;;;;-10.65;43.17;98511.31;6371643;27;20297;-64
2022/01/24 13:08:17;;;;;;;;;;;;;;;-10.83;43.32;98515.59;6378886;27;19923;-62
2022/01/24 13:11:18;;;;;;;;;;;;;;;-11.06;43.60;98505.25;6373424;27;19923;-64
2022/01/24 13:14:27;;;;;;;;;;;;;;;-11.19;43.50;98510.56;6374532;27;19930;-63
2022/01/24 13:23:57;;;;;;;;;;;;;;;-11.50;43.97;98503.16;6390218;27;19927;-62
2022/01/24 13:27:05;;;;;;;;;;;;;;;-11.46;44.91;98505.03;6395509;27;19927;-62
2022/01/24 13:30:08;;;;;;;;;;;;;;;-11.48;45.74;98517.69;6388759;27;19923;-63
2022/01/24 13:33:19;;;;;;;;;;;;;;;-11.54;46.21;98523.34;6355280;27;20017;-62
2022/01/24 13:36:21;;;;;;;;;;;;;;;-11.62;48.16;98516.16;6388683;27;19923;-60
2022/01/24 13:39:25;;;;;;;;;;;;;;;-11.77;48.71;98519.69;6382730;27;19930;-61
2022/01/24 13:42:26;;;;;;;;;;;;;;;-11.91;49.12;98515.63;6373261;27;19934;-61
2022/01/24 13:45:27;;;;;;;;;;;;;;;-12.08;49.35;98506.31;6378988;27;19919;-62
2022/01/24 13:48:38;;;;;;;;;;;;;;;-12.17;50.14;98516.00;6376629;27;19923;-64
2022/01/24 13:51:43;;;;;;;;;;;;;;;-12.21;50.56;98500.63;6379729;27;19924;-64
2022/01/24 13:54:44;;;;;;;;;;;;;;;-12.27;52.27;98504.53;6370329;27;20413;-64
2022/01/24 13:57:47;;;;;;;;;;;;;;;-12.43;53.17;98493.59;6381351;27;19950;-64
2022/01/24 14:01:00;;;;;;;;;;;;;;;-12.60;53.01;98488.47;6384670;27;20087;-64
2022/01/24 14:04:07;;;;;;;;;;;;;;;-12.70;54.03;98488.00;6375774;27;19927;-65
2022/01/24 14:07:10;;;;;;;;;;;;;;;-12.86;54.20;98480.38;6361441;27;20296;-63
2022/01/24 14:10:16;;;;;;;;;;;;;;;-12.93;54.89;98479.19;6360493;27;19930;-63
2022/01/24 14:13:24;;;;;;;;;;;;;;;-12.99;54.99;98477.97;6358081;27;19923;-64
2022/01/24 14:16:55;;;;;;;;;;;;;;;-13.01;54.48;98489.72;6354559;27;20388;-63
2022/01/24 14:19:57;;;;;;;;;;;;;;;-13.13;54.99;98495.00;6359946;27;19931;-61
2022/01/24 14:22:59;;;;;;;;;;;;;;;-13.01;55.94;98494.78;6355085;27;19931;-64
2022/01/24 14:26:12;;;;;;;;;;;;;;;-13.39;55.70;98508.81;6355558;27;19924;-62
2022/01/24 14:29:17;;;;;;;;;;;;;;;-13.54;56.21;98505.44;6351018;27;19931;-63
2022/01/24 14:32:22;;;;;;;;;;;;;;;-13.61;56.27;98499.19;6353876;27;20304;-62
2022/01/24 14:35:26;;;;;;;;;;;;;;;-13.74;56.19;98487.50;6352365;27;19924;-64
2022/01/24 14:38:27;;;;;;;;;;;;;;;-13.81;55.84;98480.38;6349399;27;19927;-64
2022/01/24 14:41:36;;;;;;;;;;;;;;;-13.78;55.62;98479.63;6352334;27;19927;-64
2022/01/24 14:44:55;;;;;;;;;;;;;;;-13.69;56.89;98486.09;6351027;27;20316;-65
2022/01/24 14:48:04;;;;;;;;;;;;;;;-13.53;57.33;98487.81;6355923;27;20513;-64
2022/01/24 14:51:05;;;;;;;;;;;;;;;-13.76;56.95;98489.06;6352770;27;20478;-64
2022/01/24 14:54:08;;;;;;;;;;;;;;;-13.67;56.96;98482.00;6334186;27;19958;-63
2022/01/24 14:57:13;;;;;;;;;;;;;;;-13.96;56.65;98479.50;6355795;27;20340;-63
2022/01/24 15:00:14;;;;;;;;;;;;;;;-14.09;57.40;98463.63;6347676;27;19930;-63
2022/01/24 15:03:18;;;;;;;;;;;;;;;-14.03;57.50;98458.91;6350475;27;20320;-67
2022/01/24 15:06:19;;;;;;;;;;;;;;;-14.05;58.03;98460.47;6359436;27;19920;-64
2022/01/24 15:09:26;;;;;;;;;;;;;;;-14.08;57.82;98460.31;6351099;27;19923;-63
2022/01/24 15:12:30;;;;;;;;;;;;;;;-14.08;56.94;98465.38;6368817;27;20018;-63
2022/01/24 15:15:35;;;;;;;;;;;;;;;-13.86;57.86;98456.47;6352279;27;19924;-63
2022/01/24 15:25:29;;;;;;;;;;;;;;;-14.07;56.55;98441.81;6363154;27;20031;-65
2022/01/24 15:28:31;;;;;;;;;;;;;;;-14.02;56.45;98444.59;6353919;27;19927;-67
2022/01/24 15:31:33;;;;;;;;;;;;;;;-13.97;56.24;98447.41;6357374;27;19919;-65
2022/01/24 15:34:43;;;;;;;;;;;;;;;-13.90;56.23;98454.53;6363415;27;20371;-63
2022/01/24 15:37:46;;;;;;;;;;;;;;;-13.87;55.89;98439.50;6358291;27;19924;-62
2022/01/24 15:40:47;;;;;;;;;;;;;;;-13.80;55.51;98441.63;6355648;27;19924;-64
2022/01/24 15:44:19;;;;;;;;;;;;;;;-13.77;55.39;98435.84;6360477;27;19933;-65
2022/01/24 15:47:36;;;;;;;;;;;;;;;-13.72;54.95;98430.25;6354112;27;19931;-65
2022/01/24 15:50:38;;;;;;;;;;;;;;;-13.70;54.88;98422.72;6334623;27;20025;-63
2022/01/24 15:53:45;;;;;;;;;;;;;;;-13.69;54.47;98420.28;6349890;27;19987;-64
2022/01/24 16:00:29;;;;;;;;;;;;;;;-13.70;54.33;98412.59;6359614;27;19931;-63
2022/01/24 16:03:34;;;;;;;;;;;;;;;-13.72;54.08;98410.00;6348025;27;19923;-63
2022/01/24 16:06:35;;;;;;;;;;;;;;;-13.78;54.13;98412.22;6363541;27;19923;-64
2022/01/24 16:09:36;;;;;;;;;;;;;;;-13.86;54.13;98401.66;6355664;27;19924;-64
2022/01/24 16:12:38;;;;;;;;;;;;;;;-13.90;53.99;98407.31;6361646;27;19923;-62
2022/01/24 16:15:41;;;;;;;;;;;;;;;-13.89;53.99;98398.09;6336749;27;19923;-63
2022/01/24 16:18:44;;;;;;;;;;;;;;;-13.88;53.94;98399.84;6353825;28;19931;-64
2022/01/24 16:22:12;;;;;;;;;;;;;;;-13.84;53.86;98395.03;6361973;28;20023;-68
2022/01/24 16:28:26;;;;;;;;;;;;;;;-13.86;53.40;98396.59;6363117;28;20573;-65
2022/01/24 16:31:27;;;;;;;;;;;;;;;-13.87;53.57;98399.94;6361055;28;19924;-64
2022/01/24 16:34:30;;;;;;;;;;;;;;;-13.88;52.77;98402.38;6346313;28;19931;-63
2022/01/24 16:37:35;;;;;;;;;;;;;;;-13.94;53.38;98399.50;6355257;28;20304;-63
2022/01/24 16:40:45;;;;;;;;;;;;;;;-14.00;52.99;98396.66;6358644;28;19923;-64
2022/01/24 16:47:06;;;;;;;;;;;;;;;-14.17;53.07;98389.00;6362880;28;19928;-64
2022/01/24 16:50:08;;;;;;;;;;;;;;;-14.19;52.79;98380.44;6357409;28;19946;-63
2022/01/24 16:53:14;;;;;;;;;;;;;;;-14.21;53.21;98387.06;6356674;28;20010;-64
2022/01/24 16:56:15;;;;;;;;;;;;;;;-14.17;53.02;98399.09;6347826;27;19931;-65
2022/01/24 16:59:16;;;;;;;;;;;;;;;-14.18;52.96;98397.38;6358163;28;20398;-64
2022/01/24 17:02:19;;;;;;;;;;;;;;;-14.23;52.95;98398.75;6364833;27;19932;-64
2022/01/24 17:05:25;;;;;;;;;;;;;;;-14.25;53.25;98406.25;6354291;27;19923;-64
2022/01/24 17:08:27;;;;;;;;;;;;;;;-14.03;53.65;98398.22;6369854;27;19926;-63
2022/01/24 17:11:29;;;;;;;;;;;;;;;-13.94;54.70;98396.97;6357197;27;19930;-63
2022/01/24 17:14:33;;;;;;;;;;;;;;;-14.20;54.78;98404.00;6363799;27;19923;-62
2022/01/24 17:17:34;;;;;;;;;;;;;;;-14.27;54.72;98402.75;6356210;27;19926;-64
2022/01/24 17:20:35;;;;;;;;;;;;;;;-14.16;56.13;98395.78;6359032;27;19931;-65
2022/01/24 17:23:38;;;;;;;;;;;;;;;-14.17;56.82;98389.00;6367840;27;19923;-63
2022/01/24 17:26:40;;;;;;;;;;;;;;;-14.29;56.83;98394.25;6358939;27;19930;-63
2022/01/24 17:29:41;;;;;;;;;;;;;;;-14.31;57.21;98379.75;6365718;27;19923;-63
2022/01/24 17:32:42;;;;;;;;;;;;;;;-14.26;57.31;98375.84;6363677;27;19923;-63
2022/01/24 17:35:47;;;;;;;;;;;;;;;-14.34;57.70;98379.59;6358822;27;19924;-63
2022/01/24 17:38:48;;;;;;;;;;;;;;;-13.93;58.73;98375.94;6365199;27;19923;-63
2022/01/24 17:41:49;;;;;;;;;;;;;;;-14.12;58.72;98372.41;6359261;27;19923;-62
2022/01/24 17:44:52;;;;;;;;;;;;;;;-14.24;58.75;98376.78;6363429;27;20565;-64
2022/01/24 17:47:55;;;;;;;;;;;;;;;-14.25;58.54;98370.00;6362164;27;19927;-63
2022/01/24 17:50:56;;;;;;;;;;;;;;;-14.23;58.42;98368.41;6363266;27;19923;-64
2022/01/24 17:53:58;;;;;;;;;;;;;;;-14.21;57.98;98361.78;6363120;27;20416;-64
2022/01/24 17:56:59;;;;;;;;;;;;;;;-14.13;58.12;98364.72;6366797;27;19923;-65
2022/01/24 18:00:00;;;;;;;;;;;;;;;-14.10;57.73;98363.22;6361938;27;20293;-62